sensor_id;sensor_type;location;lat;lon;timestamp;P1;durP1;ratioP1;P2;durP2;ratioP2
27013;SDS011;14556;52.222;4.510;2023-02-15T00:01:33;64.87;;;31.87;;
27013;SDS011;14556;52.222;4.510;2023-02-15T00:03:59;64.27;;;31.37;;
27013;SDS011;14556;52.222;4.510;2023-02-15T00:06:26;64.23;;;31.70;;
27013;SDS011;14556;52.222;4.510;2023-02-15T00:08:53;72.50;;;32.17;;
27013;SDS011;14556;52.222;4.510;2023-02-15T00:11:20;61.83;;;31.00;;
27013;SDS011;14556;52.222;4.510;2023-02-15T00:14:09;65.80;;;31.57;;
27013;SDS011;14556;52.222;4.510;2023-02-15T00:16:36;62.73;;;31.13;;
27013;SDS011;14556;52.222;4.510;2023-02-15T00:19:03;64.67;;;32.13;;
27013;SDS011;14556;52.222;4.510;2023-02-15T00:21:30;59.30;;;30.63;;
27013;SDS011;14556;52.222;4.510;2023-02-15T00:23:57;64.03;;;30.87;;
27013;SDS011;14556;52.222;4.510;2023-02-15T00:26:24;59.47;;;30.23;;
27013;SDS011;14556;52.222;4.510;2023-02-15T00:28:50;63.30;;;31.03;;
27013;SDS011;14556;52.222;4.510;2023-02-15T00:31:17;59.97;;;30.97;;
27013;SDS011;14556;52.222;4.510;2023-02-15T00:33:43;57.87;;;30.90;;
27013;SDS011;14556;52.222;4.510;2023-02-15T00:36:10;64.00;;;30.50;;
27013;SDS011;14556;52.222;4.510;2023-02-15T00:38:38;65.47;;;31.70;;
27013;SDS011;14556;52.222;4.510;2023-02-15T00:41:05;64.63;;;30.43;;
27013;SDS011;14556;52.222;4.510;2023-02-15T00:43:32;66.03;;;30.97;;
27013;SDS011;14556;52.222;4.510;2023-02-15T00:45:58;58.87;;;30.60;;
27013;SDS011;14556;52.222;4.510;2023-02-15T00:48:25;57.67;;;29.10;;
27013;SDS011;14556;52.222;4.510;2023-02-15T00:50:53;58.07;;;28.37;;
27013;SDS011;14556;52.222;4.510;2023-02-15T00:53:19;60.67;;;29.60;;
27013;SDS011;14556;52.222;4.510;2023-02-15T00:55:46;52.40;;;27.10;;
27013;SDS011;14556;52.222;4.510;2023-02-15T00:58:13;59.33;;;29.67;;
27013;SDS011;14556;52.222;4.510;2023-02-15T01:00:40;64.20;;;29.60;;
27013;SDS011;14556;52.222;4.510;2023-02-15T01:03:08;49.13;;;26.57;;
27013;SDS011;14556;52.222;4.510;2023-02-15T01:05:34;49.93;;;26.57;;
27013;SDS011;14556;52.222;4.510;2023-02-15T01:08:01;53.60;;;27.20;;
27013;SDS011;14556;52.222;4.510;2023-02-15T01:10:27;50.23;;;27.20;;
27013;SDS011;14556;52.222;4.510;2023-02-15T01:12:54;55.50;;;27.37;;
27013;SDS011;14556;52.222;4.510;2023-02-15T01:15:21;49.97;;;26.63;;
27013;SDS011;14556;52.222;4.510;2023-02-15T01:17:47;50.97;;;26.67;;
27013;SDS011;14556;52.222;4.510;2023-02-15T01:20:19;47.37;;;26.50;;
27013;SDS011;14556;52.222;4.510;2023-02-15T01:22:45;52.87;;;26.57;;
27013;SDS011;14556;52.222;4.510;2023-02-15T01:25:12;55.27;;;25.83;;
27013;SDS011;14556;52.222;4.510;2023-02-15T01:27:39;45.77;;;25.27;;
27013;SDS011;14556;52.222;4.510;2023-02-15T01:30:06;41.13;;;23.50;;
27013;SDS011;14556;52.222;4.510;2023-02-15T01:32:32;45.40;;;24.80;;
27013;SDS011;14556;52.222;4.510;2023-02-15T01:34:59;47.27;;;25.27;;
27013;SDS011;14556;52.222;4.510;2023-02-15T01:37:25;42.47;;;24.03;;
27013;SDS011;14556;52.222;4.510;2023-02-15T01:39:51;43.97;;;21.77;;
27013;SDS011;14556;52.222;4.510;2023-02-15T01:42:23;42.90;;;22.53;;
27013;SDS011;14556;52.222;4.510;2023-02-15T01:44:54;39.70;;;21.77;;
27013;SDS011;14556;52.222;4.510;2023-02-15T01:50:00;39.93;;;21.40;;
27013;SDS011;14556;52.222;4.510;2023-02-15T01:52:27;36.80;;;21.83;;
27013;SDS011;14556;52.222;4.510;2023-02-15T01:54:54;40.77;;;21.93;;
27013;SDS011;14556;52.222;4.510;2023-02-15T01:57:22;37.00;;;20.20;;
27013;SDS011;14556;52.222;4.510;2023-02-15T01:59:52;38.37;;;21.03;;
27013;SDS011;14556;52.222;4.510;2023-02-15T02:02:19;37.27;;;20.30;;
27013;SDS011;14556;52.222;4.510;2023-02-15T02:04:54;33.87;;;19.73;;
27013;SDS011;14556;52.222;4.510;2023-02-15T02:07:24;37.30;;;20.60;;
27013;SDS011;14556;52.222;4.510;2023-02-15T02:09:52;37.13;;;20.70;;
27013;SDS011;14556;52.222;4.510;2023-02-15T02:12:18;39.77;;;21.07;;
27013;SDS011;14556;52.222;4.510;2023-02-15T02:14:47;34.80;;;20.17;;
27013;SDS011;14556;52.222;4.510;2023-02-15T02:38:08;35.50;;;19.97;;
27013;SDS011;14556;52.222;4.510;2023-02-15T02:43:20;35.50;;;18.37;;
27013;SDS011;14556;52.222;4.510;2023-02-15T02:45:50;33.97;;;20.00;;
27013;SDS011;14556;52.222;4.510;2023-02-15T02:48:19;33.37;;;19.27;;
27013;SDS011;14556;52.222;4.510;2023-02-15T02:50:47;36.57;;;19.20;;
27013;SDS011;14556;52.222;4.510;2023-02-15T02:53:14;29.83;;;18.13;;
27013;SDS011;14556;52.222;4.510;2023-02-15T02:55:50;30.97;;;18.30;;
27013;SDS011;14556;52.222;4.510;2023-02-15T02:58:35;32.43;;;19.53;;
27013;SDS011;14556;52.222;4.510;2023-02-15T03:01:04;27.60;;;17.73;;
27013;SDS011;14556;52.222;4.510;2023-02-15T03:03:36;28.77;;;17.10;;
27013;SDS011;14556;52.222;4.510;2023-02-15T03:06:05;31.93;;;19.37;;
27013;SDS011;14556;52.222;4.510;2023-02-15T03:08:33;32.73;;;18.03;;
27013;SDS011;14556;52.222;4.510;2023-02-15T03:11:02;32.07;;;17.87;;
27013;SDS011;14556;52.222;4.510;2023-02-15T03:13:29;34.77;;;18.73;;
27013;SDS011;14556;52.222;4.510;2023-02-15T03:15:56;34.53;;;19.23;;
27013;SDS011;14556;52.222;4.510;2023-02-15T03:18:43;33.40;;;18.10;;
27013;SDS011;14556;52.222;4.510;2023-02-15T03:21:10;32.03;;;18.17;;
27013;SDS011;14556;52.222;4.510;2023-02-15T03:23:59;37.43;;;18.23;;
27013;SDS011;14556;52.222;4.510;2023-02-15T03:26:27;32.23;;;19.27;;
27013;SDS011;14556;52.222;4.510;2023-02-15T03:28:55;25.47;;;16.13;;
27013;SDS011;14556;52.222;4.510;2023-02-15T03:31:23;29.30;;;17.30;;
27013;SDS011;14556;52.222;4.510;2023-02-15T03:33:55;28.37;;;16.20;;
27013;SDS011;14556;52.222;4.510;2023-02-15T03:36:35;29.27;;;16.07;;
27013;SDS011;14556;52.222;4.510;2023-02-15T03:41:49;26.43;;;14.30;;
27013;SDS011;14556;52.222;4.510;2023-02-15T03:44:30;30.33;;;15.77;;
27013;SDS011;14556;52.222;4.510;2023-02-15T03:49:25;31.23;;;16.13;;
27013;SDS011;14556;52.222;4.510;2023-02-15T03:51:53;25.50;;;15.63;;
27013;SDS011;14556;52.222;4.510;2023-02-15T03:54:25;28.97;;;16.50;;
27013;SDS011;14556;52.222;4.510;2023-02-15T03:57:24;25.50;;;14.73;;
27013;SDS011;14556;52.222;4.510;2023-02-15T04:05:30;26.23;;;15.77;;
27013;SDS011;14556;52.222;4.510;2023-02-15T04:07:56;26.50;;;15.47;;
27013;SDS011;14556;52.222;4.510;2023-02-15T04:10:22;27.50;;;15.80;;
27013;SDS011;14556;52.222;4.510;2023-02-15T04:13:07;24.03;;;14.77;;
27013;SDS011;14556;52.222;4.510;2023-02-15T04:15:35;27.07;;;15.97;;
27013;SDS011;14556;52.222;4.510;2023-02-15T04:18:20;25.43;;;14.83;;
27013;SDS011;14556;52.222;4.510;2023-02-15T04:20:46;26.97;;;15.90;;
27013;SDS011;14556;52.222;4.510;2023-02-15T04:23:32;29.10;;;15.50;;
27013;SDS011;14556;52.222;4.510;2023-02-15T04:26:16;27.07;;;15.83;;
27013;SDS011;14556;52.222;4.510;2023-02-15T04:28:43;31.47;;;16.87;;
27013;SDS011;14556;52.222;4.510;2023-02-15T04:31:11;27.83;;;16.67;;
27013;SDS011;14556;52.222;4.510;2023-02-15T04:33:38;28.83;;;16.00;;
27013;SDS011;14556;52.222;4.510;2023-02-15T04:36:04;30.53;;;17.10;;
27013;SDS011;14556;52.222;4.510;2023-02-15T04:38:31;31.27;;;16.47;;
27013;SDS011;14556;52.222;4.510;2023-02-15T04:40:57;34.80;;;18.07;;
27013;SDS011;14556;52.222;4.510;2023-02-15T04:43:23;32.77;;;17.87;;
27013;SDS011;14556;52.222;4.510;2023-02-15T04:45:50;38.23;;;19.40;;
27013;SDS011;14556;52.222;4.510;2023-02-15T04:48:17;33.73;;;17.23;;
27013;SDS011;14556;52.222;4.510;2023-02-15T04:50:44;34.53;;;18.70;;
27013;SDS011;14556;52.222;4.510;2023-02-15T04:53:10;40.33;;;18.93;;
27013;SDS011;14556;52.222;4.510;2023-02-15T04:55:37;35.13;;;19.17;;
27013;SDS011;14556;52.222;4.510;2023-02-15T04:58:03;40.07;;;20.63;;
27013;SDS011;14556;52.222;4.510;2023-02-15T05:00:30;41.23;;;21.40;;
27013;SDS011;14556;52.222;4.510;2023-02-15T05:02:56;41.20;;;19.80;;
27013;SDS011;14556;52.222;4.510;2023-02-15T05:05:22;41.37;;;20.73;;
27013;SDS011;14556;52.222;4.510;2023-02-15T05:07:49;41.60;;;20.90;;
27013;SDS011;14556;52.222;4.510;2023-02-15T05:10:15;45.47;;;21.10;;
27013;SDS011;14556;52.222;4.510;2023-02-15T05:12:41;42.90;;;22.53;;
27013;SDS011;14556;52.222;4.510;2023-02-15T05:15:08;43.73;;;21.43;;
27013;SDS011;14556;52.222;4.510;2023-02-15T05:17:34;39.93;;;20.23;;
27013;SDS011;14556;52.222;4.510;2023-02-15T05:20:01;40.47;;;21.03;;
27013;SDS011;14556;52.222;4.510;2023-02-15T05:22:27;39.07;;;21.20;;
27013;SDS011;14556;52.222;4.510;2023-02-15T05:24:53;50.47;;;22.00;;
27013;SDS011;14556;52.222;4.510;2023-02-15T05:27:39;36.10;;;20.50;;
27013;SDS011;14556;52.222;4.510;2023-02-15T05:30:23;42.47;;;21.80;;
27013;SDS011;14556;52.222;4.510;2023-02-15T05:32:50;39.53;;;21.13;;
27013;SDS011;14556;52.222;4.510;2023-02-15T05:35:16;48.63;;;22.80;;
27013;SDS011;14556;52.222;4.510;2023-02-15T05:37:43;45.03;;;21.27;;
27013;SDS011;14556;52.222;4.510;2023-02-15T05:40:09;38.77;;;21.90;;
27013;SDS011;14556;52.222;4.510;2023-02-15T05:42:36;44.37;;;21.13;;
27013;SDS011;14556;52.222;4.510;2023-02-15T05:45:02;44.70;;;21.57;;
27013;SDS011;14556;52.222;4.510;2023-02-15T05:47:29;39.27;;;21.40;;
27013;SDS011;14556;52.222;4.510;2023-02-15T05:49:56;43.27;;;22.23;;
27013;SDS011;14556;52.222;4.510;2023-02-15T05:52:22;43.97;;;21.20;;
27013;SDS011;14556;52.222;4.510;2023-02-15T05:54:48;42.43;;;22.17;;
27013;SDS011;14556;52.222;4.510;2023-02-15T05:57:15;49.87;;;23.20;;
27013;SDS011;14556;52.222;4.510;2023-02-15T05:59:41;47.63;;;23.73;;
27013;SDS011;14556;52.222;4.510;2023-02-15T06:02:08;45.07;;;22.17;;
27013;SDS011;14556;52.222;4.510;2023-02-15T06:04:34;45.77;;;23.13;;
27013;SDS011;14556;52.222;4.510;2023-02-15T06:07:00;49.83;;;23.37;;
27013;SDS011;14556;52.222;4.510;2023-02-15T06:09:27;46.67;;;23.63;;
27013;SDS011;14556;52.222;4.510;2023-02-15T06:11:53;49.03;;;24.67;;
27013;SDS011;14556;52.222;4.510;2023-02-15T06:14:20;52.23;;;24.87;;
27013;SDS011;14556;52.222;4.510;2023-02-15T06:16:46;48.90;;;24.30;;
27013;SDS011;14556;52.222;4.510;2023-02-15T06:19:12;44.63;;;22.23;;
27013;SDS011;14556;52.222;4.510;2023-02-15T06:21:39;52.13;;;23.37;;
27013;SDS011;14556;52.222;4.510;2023-02-15T06:24:05;45.13;;;23.97;;
27013;SDS011;14556;52.222;4.510;2023-02-15T06:26:31;49.93;;;24.30;;
27013;SDS011;14556;52.222;4.510;2023-02-15T06:28:58;46.20;;;23.83;;
27013;SDS011;14556;52.222;4.510;2023-02-15T06:31:25;44.27;;;24.50;;
27013;SDS011;14556;52.222;4.510;2023-02-15T06:33:51;47.70;;;23.47;;
27013;SDS011;14556;52.222;4.510;2023-02-15T06:36:17;42.30;;;22.70;;
27013;SDS011;14556;52.222;4.510;2023-02-15T06:38:44;41.50;;;22.17;;
27013;SDS011;14556;52.222;4.510;2023-02-15T06:41:10;43.17;;;22.87;;
27013;SDS011;14556;52.222;4.510;2023-02-15T06:43:36;51.63;;;23.57;;
27013;SDS011;14556;52.222;4.510;2023-02-15T06:46:05;48.73;;;24.70;;
27013;SDS011;14556;52.222;4.510;2023-02-15T06:48:32;46.87;;;23.47;;
27013;SDS011;14556;52.222;4.510;2023-02-15T06:50:58;46.40;;;24.00;;
27013;SDS011;14556;52.222;4.510;2023-02-15T06:53:24;43.47;;;22.67;;
27013;SDS011;14556;52.222;4.510;2023-02-15T06:55:51;47.60;;;24.77;;
27013;SDS011;14556;52.222;4.510;2023-02-15T06:58:17;51.77;;;22.90;;
27013;SDS011;14556;52.222;4.510;2023-02-15T07:00:43;40.70;;;21.43;;
27013;SDS011;14556;52.222;4.510;2023-02-15T07:03:12;48.83;;;22.63;;
27013;SDS011;14556;52.222;4.510;2023-02-15T07:05:39;46.73;;;25.13;;
27013;SDS011;14556;52.222;4.510;2023-02-15T07:08:05;47.43;;;23.07;;
27013;SDS011;14556;52.222;4.510;2023-02-15T07:10:32;42.03;;;21.23;;
27013;SDS011;14556;52.222;4.510;2023-02-15T07:12:58;42.37;;;21.03;;
27013;SDS011;14556;52.222;4.510;2023-02-15T07:15:24;38.80;;;21.10;;
27013;SDS011;14556;52.222;4.510;2023-02-15T07:17:51;47.20;;;22.07;;
27013;SDS011;14556;52.222;4.510;2023-02-15T07:20:18;41.53;;;21.63;;
27013;SDS011;14556;52.222;4.510;2023-02-15T07:22:45;41.50;;;22.10;;
27013;SDS011;14556;52.222;4.510;2023-02-15T07:25:12;44.47;;;22.73;;
27013;SDS011;14556;52.222;4.510;2023-02-15T07:27:39;41.93;;;22.73;;
27013;SDS011;14556;52.222;4.510;2023-02-15T07:30:07;46.63;;;22.00;;
27013;SDS011;14556;52.222;4.510;2023-02-15T07:32:33;47.17;;;21.53;;
27013;SDS011;14556;52.222;4.510;2023-02-15T07:35:00;42.60;;;21.47;;
27013;SDS011;14556;52.222;4.510;2023-02-15T07:37:26;49.57;;;21.40;;
27013;SDS011;14556;52.222;4.510;2023-02-15T07:39:53;44.43;;;21.97;;
27013;SDS011;14556;52.222;4.510;2023-02-15T07:42:19;45.30;;;22.90;;
27013;SDS011;14556;52.222;4.510;2023-02-15T07:44:47;42.17;;;22.13;;
27013;SDS011;14556;52.222;4.510;2023-02-15T07:47:13;40.33;;;20.97;;
27013;SDS011;14556;52.222;4.510;2023-02-15T07:49:40;44.87;;;22.80;;
27013;SDS011;14556;52.222;4.510;2023-02-15T07:52:06;44.47;;;23.30;;
27013;SDS011;14556;52.222;4.510;2023-02-15T07:54:32;48.87;;;23.13;;
27013;SDS011;14556;52.222;4.510;2023-02-15T07:57:00;42.70;;;20.80;;
27013;SDS011;14556;52.222;4.510;2023-02-15T07:59:26;48.03;;;23.57;;
27013;SDS011;14556;52.222;4.510;2023-02-15T08:01:53;43.90;;;22.57;;
27013;SDS011;14556;52.222;4.510;2023-02-15T08:04:22;51.53;;;24.37;;
27013;SDS011;14556;52.222;4.510;2023-02-15T08:06:51;46.83;;;22.43;;
27013;SDS011;14556;52.222;4.510;2023-02-15T08:09:17;47.30;;;21.83;;
27013;SDS011;14556;52.222;4.510;2023-02-15T08:11:44;48.43;;;23.97;;
27013;SDS011;14556;52.222;4.510;2023-02-15T08:16:46;44.77;;;20.97;;
27013;SDS011;14556;52.222;4.510;2023-02-15T08:21:43;46.07;;;23.17;;
27013;SDS011;14556;52.222;4.510;2023-02-15T08:24:10;51.97;;;24.53;;
27013;SDS011;14556;52.222;4.510;2023-02-15T08:26:37;43.40;;;22.23;;
27013;SDS011;14556;52.222;4.510;2023-02-15T08:29:07;48.83;;;23.57;;
27013;SDS011;14556;52.222;4.510;2023-02-15T08:31:34;46.43;;;23.00;;
27013;SDS011;14556;52.222;4.510;2023-02-15T08:34:01;45.50;;;23.53;;
27013;SDS011;14556;52.222;4.510;2023-02-15T08:36:29;46.40;;;24.33;;
27013;SDS011;14556;52.222;4.510;2023-02-15T08:39:00;53.40;;;25.43;;
27013;SDS011;14556;52.222;4.510;2023-02-15T08:41:27;52.37;;;25.17;;
27013;SDS011;14556;52.222;4.510;2023-02-15T08:43:56;53.53;;;25.47;;
27013;SDS011;14556;52.222;4.510;2023-02-15T08:46:24;48.07;;;24.27;;
27013;SDS011;14556;52.222;4.510;2023-02-15T08:48:50;51.20;;;25.40;;
27013;SDS011;14556;52.222;4.510;2023-02-15T08:51:21;55.93;;;25.90;;
27013;SDS011;14556;52.222;4.510;2023-02-15T08:53:48;47.77;;;24.73;;
27013;SDS011;14556;52.222;4.510;2023-02-15T08:56:16;49.20;;;24.87;;
27013;SDS011;14556;52.222;4.510;2023-02-15T08:58:42;53.23;;;27.13;;
27013;SDS011;14556;52.222;4.510;2023-02-15T09:01:09;55.37;;;26.47;;
27013;SDS011;14556;52.222;4.510;2023-02-15T09:03:36;58.00;;;26.50;;
27013;SDS011;14556;52.222;4.510;2023-02-15T09:06:02;53.93;;;27.57;;
27013;SDS011;14556;52.222;4.510;2023-02-15T09:08:29;62.03;;;28.03;;
27013;SDS011;14556;52.222;4.510;2023-02-15T09:11:04;59.73;;;26.87;;
27013;SDS011;14556;52.222;4.510;2023-02-15T09:13:30;65.63;;;29.03;;
27013;SDS011;14556;52.222;4.510;2023-02-15T09:16:03;63.87;;;29.53;;
27013;SDS011;14556;52.222;4.510;2023-02-15T09:18:31;63.13;;;30.43;;
27013;SDS011;14556;52.222;4.510;2023-02-15T09:21:05;63.27;;;31.70;;
27013;SDS011;14556;52.222;4.510;2023-02-15T09:23:31;60.77;;;29.40;;
27013;SDS011;14556;52.222;4.510;2023-02-15T09:26:01;57.93;;;30.03;;
27013;SDS011;14556;52.222;4.510;2023-02-15T09:28:27;59.60;;;30.90;;
27013;SDS011;14556;52.222;4.510;2023-02-15T09:30:54;75.77;;;33.33;;
27013;SDS011;14556;52.222;4.510;2023-02-15T09:33:21;73.77;;;35.03;;
27013;SDS011;14556;52.222;4.510;2023-02-15T09:35:48;75.70;;;35.23;;
27013;SDS011;14556;52.222;4.510;2023-02-15T09:38:14;81.63;;;34.20;;
27013;SDS011;14556;52.222;4.510;2023-02-15T09:40:42;79.90;;;33.40;;
27013;SDS011;14556;52.222;4.510;2023-02-15T09:53:54;91.07;;;40.63;;
27013;SDS011;14556;52.222;4.510;2023-02-15T10:01:31;101.77;;;44.17;;
27013;SDS011;14556;52.222;4.510;2023-02-15T10:06:36;98.57;;;41.13;;
27013;SDS011;14556;52.222;4.510;2023-02-15T10:09:45;105.47;;;43.13;;
27013;SDS011;14556;52.222;4.510;2023-02-15T10:17:13;104.40;;;41.17;;
27013;SDS011;14556;52.222;4.510;2023-02-15T10:22:39;118.10;;;48.50;;
27013;SDS011;14556;52.222;4.510;2023-02-15T10:27:47;102.37;;;42.33;;
27013;SDS011;14556;52.222;4.510;2023-02-15T10:30:15;110.23;;;42.33;;
27013;SDS011;14556;52.222;4.510;2023-02-15T10:33:03;110.20;;;47.30;;
27013;SDS011;14556;52.222;4.510;2023-02-15T10:38:10;103.70;;;44.97;;
27013;SDS011;14556;52.222;4.510;2023-02-15T10:43:28;95.50;;;43.13;;
27013;SDS011;14556;52.222;4.510;2023-02-15T10:54:21;83.10;;;37.50;;
27013;SDS011;14556;52.222;4.510;2023-02-15T10:59:45;70.27;;;34.27;;
27013;SDS011;14556;52.222;4.510;2023-02-15T11:02:20;63.80;;;33.60;;
27013;SDS011;14556;52.222;4.510;2023-02-15T11:07:17;69.60;;;35.03;;
27013;SDS011;14556;52.222;4.510;2023-02-15T11:12:30;68.03;;;31.67;;
27013;SDS011;14556;52.222;4.510;2023-02-15T11:17:45;59.13;;;30.93;;
27013;SDS011;14556;52.222;4.510;2023-02-15T11:22:43;55.33;;;31.40;;
27013;SDS011;14556;52.222;4.510;2023-02-15T11:25:17;55.97;;;30.07;;
27013;SDS011;14556;52.222;4.510;2023-02-15T11:27:43;59.23;;;30.13;;
27013;SDS011;14556;52.222;4.510;2023-02-15T11:30:13;58.47;;;31.30;;
27013;SDS011;14556;52.222;4.510;2023-02-15T11:32:41;58.73;;;30.77;;
27013;SDS011;14556;52.222;4.510;2023-02-15T11:37:37;60.63;;;31.00;;
27013;SDS011;14556;52.222;4.510;2023-02-15T11:42:48;59.93;;;32.07;;
27013;SDS011;14556;52.222;4.510;2023-02-15T11:47:49;54.97;;;28.53;;
27013;SDS011;14556;52.222;4.510;2023-02-15T11:50:17;51.77;;;27.43;;
27013;SDS011;14556;52.222;4.510;2023-02-15T11:52:49;67.97;;;30.00;;
27013;SDS011;14556;52.222;4.510;2023-02-15T11:55:18;55.77;;;28.90;;
27013;SDS011;14556;52.222;4.510;2023-02-15T11:57:47;58.50;;;28.87;;
27013;SDS011;14556;52.222;4.510;2023-02-15T12:02:49;56.13;;;27.67;;
27013;SDS011;14556;52.222;4.510;2023-02-15T12:05:21;57.60;;;29.43;;
27013;SDS011;14556;52.222;4.510;2023-02-15T12:07:50;56.23;;;27.73;;
27013;SDS011;14556;52.222;4.510;2023-02-15T12:12:44;58.33;;;29.43;;
27013;SDS011;14556;52.222;4.510;2023-02-15T12:15:11;57.30;;;29.87;;
27013;SDS011;14556;52.222;4.510;2023-02-15T12:17:39;55.33;;;28.63;;
27013;SDS011;14556;52.222;4.510;2023-02-15T12:22:53;56.40;;;28.43;;
27013;SDS011;14556;52.222;4.510;2023-02-15T12:25:22;67.13;;;31.90;;
27013;SDS011;14556;52.222;4.510;2023-02-15T12:27:49;57.90;;;27.23;;
27013;SDS011;14556;52.222;4.510;2023-02-15T12:32:49;55.83;;;28.73;;
27013;SDS011;14556;52.222;4.510;2023-02-15T12:35:21;60.03;;;28.47;;
27013;SDS011;14556;52.222;4.510;2023-02-15T12:40:38;56.50;;;28.03;;
27013;SDS011;14556;52.222;4.510;2023-02-15T12:43:23;53.73;;;28.40;;
27013;SDS011;14556;52.222;4.510;2023-02-15T12:45:51;59.07;;;28.47;;
27013;SDS011;14556;52.222;4.510;2023-02-15T12:48:18;53.20;;;27.80;;
27013;SDS011;14556;52.222;4.510;2023-02-15T12:50:48;53.20;;;28.37;;
27013;SDS011;14556;52.222;4.510;2023-02-15T12:53:31;54.27;;;28.57;;
27013;SDS011;14556;52.222;4.510;2023-02-15T12:55:59;53.50;;;28.60;;
27013;SDS011;14556;52.222;4.510;2023-02-15T12:58:26;57.80;;;29.23;;
27013;SDS011;14556;52.222;4.510;2023-02-15T13:06:19;58.33;;;28.73;;
27013;SDS011;14556;52.222;4.510;2023-02-15T13:08:50;57.87;;;28.33;;
27013;SDS011;14556;52.222;4.510;2023-02-15T13:11:26;55.10;;;28.30;;
27013;SDS011;14556;52.222;4.510;2023-02-15T13:13:58;54.33;;;27.90;;
27013;SDS011;14556;52.222;4.510;2023-02-15T13:16:30;55.77;;;27.97;;
27013;SDS011;14556;52.222;4.510;2023-02-15T13:18:57;55.67;;;26.47;;
27013;SDS011;14556;52.222;4.510;2023-02-15T13:21:29;57.57;;;27.20;;
27013;SDS011;14556;52.222;4.510;2023-02-15T13:23:58;53.20;;;26.20;;
27013;SDS011;14556;52.222;4.510;2023-02-15T13:26:26;57.80;;;27.13;;
27013;SDS011;14556;52.222;4.510;2023-02-15T13:28:56;54.40;;;27.23;;
27013;SDS011;14556;52.222;4.510;2023-02-15T13:31:24;50.60;;;26.43;;
27013;SDS011;14556;52.222;4.510;2023-02-15T13:33:58;47.27;;;24.97;;
27013;SDS011;14556;52.222;4.510;2023-02-15T13:38:58;53.23;;;26.50;;
27013;SDS011;14556;52.222;4.510;2023-02-15T13:49:17;52.47;;;26.07;;
27013;SDS011;14556;52.222;4.510;2023-02-15T13:54:34;56.40;;;25.70;;
27013;SDS011;14556;52.222;4.510;2023-02-15T14:10:54;56.33;;;24.73;;
27013;SDS011;14556;52.222;4.510;2023-02-15T14:18:57;52.10;;;23.37;;
27013;SDS011;14556;52.222;4.510;2023-02-15T14:21:32;49.70;;;24.00;;
27013;SDS011;14556;52.222;4.510;2023-02-15T14:24:14;52.40;;;24.37;;
27013;SDS011;14556;52.222;4.510;2023-02-15T14:26:52;53.27;;;26.03;;
27013;SDS011;14556;52.222;4.510;2023-02-15T14:31:52;51.30;;;25.03;;
27013;SDS011;14556;52.222;4.510;2023-02-15T14:34:31;51.93;;;23.73;;
27013;SDS011;14556;52.222;4.510;2023-02-15T14:37:02;53.63;;;24.67;;
27013;SDS011;14556;52.222;4.510;2023-02-15T14:39:35;49.80;;;24.60;;
27013;SDS011;14556;52.222;4.510;2023-02-15T14:42:34;48.43;;;23.77;;
27013;SDS011;14556;52.222;4.510;2023-02-15T14:47:31;51.53;;;25.07;;
27013;SDS011;14556;52.222;4.510;2023-02-15T14:50:35;51.33;;;25.63;;
27013;SDS011;14556;52.222;4.510;2023-02-15T14:53:25;51.80;;;26.57;;
27013;SDS011;14556;52.222;4.510;2023-02-15T14:55:42;51.70;;;24.00;;
27013;SDS011;14556;52.222;4.510;2023-02-15T14:58:10;49.23;;;25.33;;
27013;SDS011;14556;52.222;4.510;2023-02-15T15:00:38;51.67;;;25.90;;
27013;SDS011;14556;52.222;4.510;2023-02-15T15:03:12;52.27;;;25.33;;
27013;SDS011;14556;52.222;4.510;2023-02-15T15:05:48;50.43;;;25.37;;
27013;SDS011;14556;52.222;4.510;2023-02-15T15:08:48;52.90;;;25.63;;
27013;SDS011;14556;52.222;4.510;2023-02-15T15:11:37;49.53;;;24.13;;
27013;SDS011;14556;52.222;4.510;2023-02-15T15:14:10;48.67;;;24.93;;
27013;SDS011;14556;52.222;4.510;2023-02-15T15:19:09;49.03;;;25.07;;
27013;SDS011;14556;52.222;4.510;2023-02-15T15:29:45;45.10;;;23.83;;
27013;SDS011;14556;52.222;4.510;2023-02-15T15:32:22;50.40;;;25.80;;
27013;SDS011;14556;52.222;4.510;2023-02-15T15:35:03;47.87;;;25.47;;
27013;SDS011;14556;52.222;4.510;2023-02-15T15:50:46;48.83;;;23.47;;
27013;SDS011;14556;52.222;4.510;2023-02-15T15:53:24;49.03;;;23.17;;
27013;SDS011;14556;52.222;4.510;2023-02-15T15:55:52;45.13;;;23.17;;
27013;SDS011;14556;52.222;4.510;2023-02-15T15:58:21;43.47;;;22.97;;
27013;SDS011;14556;52.222;4.510;2023-02-15T16:00:52;53.57;;;27.50;;
27013;SDS011;14556;52.222;4.510;2023-02-15T16:03:23;46.43;;;24.90;;
27013;SDS011;14556;52.222;4.510;2023-02-15T16:05:50;52.40;;;24.23;;
27013;SDS011;14556;52.222;4.510;2023-02-15T16:08:31;43.83;;;22.70;;
27013;SDS011;14556;52.222;4.510;2023-02-15T16:10:58;51.03;;;24.23;;
27013;SDS011;14556;52.222;4.510;2023-02-15T16:13:24;48.93;;;26.07;;
27013;SDS011;14556;52.222;4.510;2023-02-15T16:15:52;54.13;;;26.47;;
27013;SDS011;14556;52.222;4.510;2023-02-15T16:18:20;48.77;;;24.33;;
27013;SDS011;14556;52.222;4.510;2023-02-15T16:20:55;45.67;;;23.80;;
27013;SDS011;14556;52.222;4.510;2023-02-15T16:28:50;50.77;;;25.17;;
27013;SDS011;14556;52.222;4.510;2023-02-15T16:31:21;51.40;;;25.13;;
27013;SDS011;14556;52.222;4.510;2023-02-15T16:33:54;49.10;;;24.83;;
27013;SDS011;14556;52.222;4.510;2023-02-15T16:36:22;46.23;;;24.07;;
27013;SDS011;14556;52.222;4.510;2023-02-15T16:41:15;48.43;;;26.00;;
27013;SDS011;14556;52.222;4.510;2023-02-15T16:43:44;45.80;;;25.53;;
27013;SDS011;14556;52.222;4.510;2023-02-15T16:46:12;53.30;;;26.47;;
27013;SDS011;14556;52.222;4.510;2023-02-15T16:48:43;49.63;;;25.43;;
27013;SDS011;14556;52.222;4.510;2023-02-15T16:51:18;54.30;;;26.47;;
27013;SDS011;14556;52.222;4.510;2023-02-15T16:53:46;51.10;;;26.13;;
27013;SDS011;14556;52.222;4.510;2023-02-15T16:56:12;50.23;;;25.23;;
27013;SDS011;14556;52.222;4.510;2023-02-15T16:58:43;50.73;;;26.53;;
27013;SDS011;14556;52.222;4.510;2023-02-15T17:01:11;53.57;;;26.43;;
27013;SDS011;14556;52.222;4.510;2023-02-15T17:03:39;51.20;;;27.60;;
27013;SDS011;14556;52.222;4.510;2023-02-15T17:06:18;45.20;;;24.93;;
27013;SDS011;14556;52.222;4.510;2023-02-15T17:08:48;47.30;;;24.90;;
27013;SDS011;14556;52.222;4.510;2023-02-15T17:11:15;46.17;;;24.73;;
27013;SDS011;14556;52.222;4.510;2023-02-15T17:16:29;50.87;;;26.93;;
27013;SDS011;14556;52.222;4.510;2023-02-15T17:18:58;53.30;;;25.87;;
27013;SDS011;14556;52.222;4.510;2023-02-15T17:21:26;48.90;;;26.07;;
27013;SDS011;14556;52.222;4.510;2023-02-15T17:23:59;51.90;;;27.27;;
27013;SDS011;14556;52.222;4.510;2023-02-15T17:26:27;54.10;;;26.50;;
27013;SDS011;14556;52.222;4.510;2023-02-15T17:28:56;55.77;;;27.43;;
27013;SDS011;14556;52.222;4.510;2023-02-15T17:31:24;56.30;;;26.40;;
27013;SDS011;14556;52.222;4.510;2023-02-15T17:33:51;51.57;;;25.83;;
27013;SDS011;14556;52.222;4.510;2023-02-15T17:36:21;48.23;;;24.33;;
27013;SDS011;14556;52.222;4.510;2023-02-15T17:41:24;50.53;;;25.83;;
27013;SDS011;14556;52.222;4.510;2023-02-15T17:43:51;53.70;;;25.43;;
27013;SDS011;14556;52.222;4.510;2023-02-15T17:46:17;56.30;;;28.57;;
27013;SDS011;14556;52.222;4.510;2023-02-15T17:48:50;51.87;;;25.57;;
27013;SDS011;14556;52.222;4.510;2023-02-15T17:51:17;51.43;;;25.93;;
27013;SDS011;14556;52.222;4.510;2023-02-15T17:53:44;49.53;;;25.53;;